createdAt,value
2019-03-24T00:00:36.774Z,65.66
2019-03-24T00:03:03.477Z,65.61
2019-03-24T00:05:30.154Z,64.95
2019-03-24T00:07:56.999Z,65.54
2019-03-24T00:10:23.711Z,64.81
2019-03-24T00:12:50.331Z,65.88
2019-03-24T00:15:25.825Z,65.63
2019-03-24T00:17:45.378Z,65.85
2019-03-24T00:20:12.871Z,65.87
2019-03-24T00:22:39.528Z,65.85
2019-03-24T00:25:06.614Z,65.84
2019-03-24T00:27:33.402Z,66.20
2019-03-24T00:30:00.050Z,66.22
2019-03-24T00:32:27.399Z,65.66
2019-03-24T00:34:54.083Z,65.89
2019-03-24T00:37:20.799Z,66.08
2019-03-24T00:40:43.511Z,66.22
2019-03-24T00:43:10.626Z,66.60
2019-03-24T00:45:37.409Z,66.33
2019-03-24T00:48:04.325Z,66.10
2019-03-24T00:50:30.954Z,65.84
2019-03-24T00:52:59.521Z,66.14
2019-03-24T00:55:26.090Z,66.43
2019-03-24T00:57:52.848Z,65.20
2019-03-24T01:00:25.245Z,64.91
2019-03-24T01:02:51.861Z,64.90
2019-03-24T01:05:18.651Z,64.85
2019-03-24T01:07:45.416Z,65.16
2019-03-24T01:10:12.493Z,65.06
2019-03-24T01:12:39.060Z,64.78
2019-03-24T01:15:07.467Z,65.22
2019-03-24T01:17:34.869Z,64.66
2019-03-24T01:20:01.826Z,65.22
2019-03-24T01:22:28.663Z,65.22
2019-03-24T01:24:55.350Z,65.30
2019-03-24T01:27:21.929Z,65.21
2019-03-24T01:29:48.713Z,65.33
2019-03-24T01:32:15.293Z,64.40
2019-03-24T01:34:41.971Z,64.01
2019-03-24T01:37:08.803Z,64.01
2019-03-24T01:39:35.365Z,63.70
2019-03-24T01:42:02.011Z,63.74
2019-03-24T01:44:28.799Z,64.00
2019-03-24T01:46:55.462Z,63.93
2019-03-24T01:49:22.229Z,64.29
2019-03-24T01:51:48.842Z,63.78
2019-03-24T01:54:15.524Z,63.71
2019-03-24T01:56:42.291Z,63.40
2019-03-24T01:59:08.896Z,63.27
2019-03-24T02:01:35.686Z,63.35
2019-03-24T02:04:02.496Z,62.54
2019-03-24T02:06:29.206Z,62.60
2019-03-24T02:08:55.871Z,61.92
2019-03-24T02:11:22.463Z,61.92
2019-03-24T02:13:49.243Z,61.76
2019-03-24T02:16:15.931Z,61.56
2019-03-24T02:18:42.651Z,61.91
2019-03-24T02:21:09.304Z,61.26
2019-03-24T02:23:35.894Z,60.95
2019-03-24T02:26:02.493Z,61.18
2019-03-24T02:28:29.224Z,61.90
2019-03-24T02:30:55.827Z,61.98
2019-03-24T02:33:22.450Z,61.51
2019-03-24T02:35:49.137Z,61.66
2019-03-24T02:38:15.760Z,60.83
2019-03-24T02:40:42.483Z,60.97
2019-03-24T02:43:09.113Z,60.37
2019-03-24T02:45:35.784Z,61.08
2019-03-24T02:48:02.623Z,60.47
2019-03-24T02:50:29.265Z,60.45
2019-03-24T02:52:55.872Z,60.52
2019-03-24T02:55:22.610Z,60.66
2019-03-24T02:57:49.192Z,60.95
2019-03-24T03:00:16.365Z,60.98
2019-03-24T03:02:43.286Z,60.41
2019-03-24T03:05:10.174Z,61.17
2019-03-24T03:07:38.111Z,61.61
2019-03-24T03:10:07.496Z,61.37
2019-03-24T03:12:34.256Z,61.29
2019-03-24T03:15:00.848Z,61.23
2019-03-24T03:17:27.678Z,61.68
2019-03-24T03:19:54.306Z,61.74
2019-03-24T03:22:21.054Z,61.85
2019-03-24T03:24:47.751Z,62.10
2019-03-24T03:27:14.440Z,62.27
2019-03-24T03:29:41.031Z,62.20
2019-03-24T03:32:07.601Z,61.91
2019-03-24T03:35:30.640Z,61.80
2019-03-24T03:37:57.294Z,62.71
2019-03-24T03:40:23.930Z,62.75
2019-03-24T03:42:50.492Z,62.51
2019-03-24T03:45:22.814Z,63.05
2019-03-24T03:47:49.521Z,63.29
2019-03-24T03:50:16.515Z,63.58
2019-03-24T03:52:43.250Z,64.60
2019-03-24T03:55:10.242Z,63.95
2019-03-24T03:57:36.940Z,64.10
2019-03-24T04:00:07.775Z,63.73
2019-03-24T04:02:34.589Z,64.31
2019-03-24T04:05:05.053Z,65.12
2019-03-24T04:07:31.830Z,65.03
2019-03-24T04:09:58.441Z,65.87
2019-03-24T04:12:25.156Z,65.38
2019-03-24T04:14:51.771Z,66.17
2019-03-24T04:17:18.469Z,66.50
2019-03-24T04:19:45.036Z,66.36
2019-03-24T04:22:11.739Z,66.25
2019-03-24T04:24:38.496Z,66.82
2019-03-24T04:27:05.066Z,67.68
2019-03-24T04:29:31.683Z,67.59
2019-03-24T04:31:58.616Z,67.98
2019-03-24T04:35:21.766Z,67.53
2019-03-24T04:37:48.503Z,67.56
2019-03-24T04:40:15.222Z,67.30
2019-03-24T04:42:41.786Z,68.09
2019-03-24T04:45:08.907Z,68.30
2019-03-24T04:47:35.616Z,67.49
2019-03-24T04:50:06.838Z,67.10
2019-03-24T04:52:33.716Z,67.62
2019-03-24T04:55:00.342Z,67.47
2019-03-24T04:57:26.995Z,67.75
2019-03-24T04:59:53.572Z,67.83
2019-03-24T05:02:20.478Z,67.40
2019-03-24T05:04:48.264Z,67.85
2019-03-24T05:07:16.654Z,67.96
2019-03-24T05:09:44.972Z,67.91
2019-03-24T05:12:11.577Z,68.02
2019-03-24T05:14:38.156Z,67.95
2019-03-24T05:17:04.872Z,68.30
2019-03-24T05:19:31.430Z,67.73
2019-03-24T05:21:58.001Z,67.65
2019-03-24T05:24:24.651Z,67.86
2019-03-24T05:26:51.334Z,68.36
2019-03-24T05:29:17.951Z,68.21
2019-03-24T05:31:44.558Z,68.30
2019-03-24T05:34:11.445Z,68.10
2019-03-24T05:36:38.212Z,67.69
2019-03-24T05:39:08.837Z,67.79
2019-03-24T05:41:35.589Z,67.46
2019-03-24T05:44:02.551Z,67.06
2019-03-24T05:46:29.315Z,66.93
2019-03-24T05:48:55.891Z,66.71
2019-03-24T05:51:22.623Z,66.19
2019-03-24T05:53:49.161Z,65.49
2019-03-24T05:56:15.773Z,65.71
2019-03-24T05:58:43.578Z,65.79
2019-03-24T06:01:10.240Z,65.36
2019-03-24T06:03:36.972Z,65.25
2019-03-24T06:06:03.748Z,64.53
2019-03-24T06:08:30.424Z,64.79
2019-03-24T06:10:57.071Z,63.57
2019-03-24T06:13:23.667Z,63.51
2019-03-24T06:15:50.278Z,63.52
2019-03-24T06:18:16.841Z,62.10
2019-03-24T06:20:43.582Z,62.16
2019-03-24T06:23:10.293Z,61.04
2019-03-24T06:25:36.840Z,61.06
2019-03-24T06:28:59.689Z,61.78
2019-03-24T06:31:27.593Z,61.13
2019-03-24T06:33:54.355Z,59.23
2019-03-24T06:36:20.908Z,59.05
2019-03-24T06:38:47.518Z,59.10
2019-03-24T06:41:14.074Z,59.44
2019-03-24T06:43:40.631Z,58.78
2019-03-24T06:46:07.296Z,57.82
2019-03-24T06:48:34.029Z,58.59
2019-03-24T06:51:00.623Z,58.01
2019-03-24T06:53:27.195Z,56.68
2019-03-24T06:55:53.795Z,57.88
2019-03-24T06:58:20.399Z,57.75
2019-03-24T07:00:47.077Z,55.93
2019-03-24T07:03:13.693Z,55.74
2019-03-24T07:05:40.518Z,54.78
2019-03-24T07:08:09.876Z,54.57
2019-03-24T07:10:36.540Z,54.66
2019-03-24T07:13:03.273Z,53.78
2019-03-24T07:15:29.936Z,53.70
2019-03-24T07:17:56.507Z,54.31
2019-03-24T07:20:23.160Z,53.30
2019-03-24T07:22:49.792Z,54.78
2019-03-24T07:25:16.910Z,54.33
2019-03-24T07:27:43.760Z,54.81
2019-03-24T07:30:10.982Z,53.90
2019-03-24T07:32:37.767Z,54.49
2019-03-24T07:35:05.857Z,54.45
2019-03-24T07:37:32.604Z,54.00
2019-03-24T07:39:59.283Z,54.33
2019-03-24T07:42:25.982Z,53.04
2019-03-24T07:44:52.563Z,54.03
2019-03-24T07:47:19.119Z,54.51
2019-03-24T07:49:45.833Z,54.16
2019-03-24T07:52:12.419Z,53.33
2019-03-24T07:54:41.243Z,52.65
2019-03-24T07:57:07.759Z,52.84
2019-03-24T07:59:34.560Z,52.92
2019-03-24T08:02:01.407Z,54.10
2019-03-24T08:04:28.309Z,53.82
2019-03-24T08:06:55.230Z,53.65
2019-03-24T08:09:22.026Z,53.75
2019-03-24T08:11:48.631Z,53.62
2019-03-24T08:14:15.377Z,54.08
2019-03-24T08:16:41.954Z,53.00
2019-03-24T08:19:08.679Z,53.08
2019-03-24T08:21:35.467Z,53.54
2019-03-24T08:24:02.246Z,53.05
2019-03-24T08:27:26.449Z,53.14
2019-03-24T08:29:53.183Z,53.13
2019-03-24T08:32:19.847Z,53.40
2019-03-24T08:34:48.359Z,53.42
2019-03-24T08:37:14.917Z,53.95
2019-03-24T08:39:41.659Z,53.31
2019-03-24T08:42:08.584Z,53.03
2019-03-24T08:44:35.742Z,52.51
2019-03-24T08:47:03.431Z,52.21
2019-03-24T08:49:30.271Z,51.29
2019-03-24T08:51:57.913Z,51.12
2019-03-24T08:54:24.706Z,51.55
2019-03-24T08:56:51.549Z,51.10
2019-03-24T08:59:18.320Z,50.08
2019-03-24T09:01:44.883Z,49.64
2019-03-24T09:04:11.736Z,49.78
2019-03-24T09:07:34.993Z,49.33
2019-03-24T09:10:02.292Z,49.31
2019-03-24T09:12:32.595Z,48.31
2019-03-24T09:14:59.194Z,47.77
2019-03-24T09:17:25.878Z,47.32
2019-03-24T09:19:52.678Z,46.95
2019-03-24T09:22:19.371Z,45.86
2019-03-24T09:24:45.896Z,45.85
2019-03-24T09:28:10.216Z,45.34
2019-03-24T09:30:37.792Z,43.58
2019-03-24T09:33:06.089Z,44.56
2019-03-24T09:35:32.944Z,46.09
2019-03-24T09:38:56.074Z,46.56
2019-03-24T09:41:22.659Z,44.70
2019-03-24T09:43:49.417Z,44.27
2019-03-24T09:46:15.983Z,43.71
2019-03-24T09:48:42.610Z,43.42
2019-03-24T09:51:10.413Z,43.29
2019-03-24T09:53:37.105Z,43.02
2019-03-24T09:56:05.648Z,43.49
2019-03-24T09:58:32.206Z,44.34
2019-03-24T10:00:58.958Z,43.20
2019-03-24T10:03:25.905Z,41.94
2019-03-24T10:05:52.572Z,41.01
2019-03-24T10:08:19.379Z,41.59
2019-03-24T10:10:46.055Z,43.39
2019-03-24T10:13:15.481Z,44.36
2019-03-24T10:15:42.991Z,44.47
2019-03-24T10:18:10.115Z,43.93
2019-03-24T10:20:36.752Z,43.50
2019-03-24T10:23:03.339Z,42.87
2019-03-24T10:25:30.064Z,42.79
2019-03-24T10:27:56.675Z,42.01
2019-03-24T10:30:23.488Z,40.82
2019-03-24T10:33:46.304Z,40.46
2019-03-24T10:36:13.017Z,40.66
2019-03-24T10:38:39.706Z,39.88
2019-03-24T10:41:06.330Z,39.66
2019-03-24T10:43:33.055Z,39.11
2019-03-24T10:45:59.715Z,39.15
2019-03-24T10:48:33.690Z,38.35
2019-03-24T10:50:55.002Z,37.45
2019-03-24T10:53:21.645Z,37.88
2019-03-24T10:55:48.423Z,37.62
2019-03-24T10:58:15.681Z,37.68
2019-03-24T11:00:42.928Z,37.97
2019-03-24T11:03:10.185Z,36.85
2019-03-24T11:05:37.155Z,37.02
2019-03-24T11:08:04.084Z,36.17
2019-03-24T11:10:30.962Z,36.17
2019-03-24T11:12:57.683Z,36.78
2019-03-24T11:15:24.385Z,36.93
2019-03-24T11:17:50.969Z,36.55
2019-03-24T11:20:17.865Z,36.18
2019-03-24T11:22:45.167Z,36.33
2019-03-24T11:25:12.307Z,36.08
2019-03-24T11:27:39.089Z,35.50
2019-03-24T11:30:10.799Z,35.71
2019-03-24T11:32:39.635Z,35.68
2019-03-24T11:35:08.776Z,35.81
2019-03-24T11:37:35.468Z,35.21
2019-03-24T11:40:06.471Z,36.25
2019-03-24T11:42:33.028Z,35.53
2019-03-24T11:44:59.770Z,35.24
2019-03-24T11:47:27.053Z,35.58
2019-03-24T11:49:57.049Z,35.05
2019-03-24T11:52:25.568Z,34.76
2019-03-24T11:54:52.158Z,36.01
2019-03-24T11:57:19.150Z,36.00
2019-03-24T11:59:46.019Z,35.17
2019-03-24T12:02:13.975Z,35.83
2019-03-24T12:04:40.589Z,34.92
2019-03-24T12:07:07.224Z,35.63
2019-03-24T12:09:33.846Z,35.39
2019-03-24T12:12:00.516Z,35.81
2019-03-24T12:14:27.095Z,35.83
2019-03-24T12:18:08.783Z,35.15
2019-03-24T12:20:35.614Z,35.61
2019-03-24T12:23:02.578Z,35.33
2019-03-24T12:25:29.440Z,35.33
2019-03-24T12:27:59.406Z,34.41
2019-03-24T12:30:27.277Z,35.18
2019-03-24T12:32:54.130Z,34.98
2019-03-24T12:35:20.686Z,34.48
2019-03-24T12:37:47.299Z,35.06
2019-03-24T12:40:14.389Z,35.33
2019-03-24T12:42:41.141Z,34.85
2019-03-24T12:45:11.936Z,34.10
2019-03-24T12:47:38.707Z,34.67
2019-03-24T12:50:09.613Z,34.47
2019-03-24T12:52:36.857Z,34.65
2019-03-24T12:55:05.145Z,34.83
2019-03-24T12:57:31.802Z,33.96
2019-03-24T12:59:58.403Z,34.30
2019-03-24T13:02:24.992Z,34.52
2019-03-24T13:04:51.707Z,33.99
2019-03-24T13:07:18.423Z,34.24
2019-03-24T13:09:45.021Z,34.74
2019-03-24T13:12:12.930Z,33.94
2019-03-24T13:14:39.751Z,33.66
2019-03-24T13:17:06.549Z,34.01
2019-03-24T13:19:35.893Z,32.58
2019-03-24T13:22:03.913Z,32.72
2019-03-24T13:24:32.618Z,30.16
2019-03-24T13:26:59.662Z,29.25
2019-03-24T13:29:26.265Z,28.36
2019-03-24T13:31:53.186Z,26.36
2019-03-24T13:34:21.778Z,27.32
2019-03-24T13:36:48.427Z,28.73
2019-03-24T13:39:15.084Z,29.65
2019-03-24T13:41:41.684Z,29.77
2019-03-24T13:44:11.450Z,29.90
2019-03-24T13:46:38.115Z,30.76
2019-03-24T13:49:05.040Z,30.39
2019-03-24T13:51:31.609Z,30.87
2019-03-24T13:53:58.166Z,31.57
2019-03-24T13:56:24.899Z,31.61
2019-03-24T13:59:48.172Z,31.62
2019-03-24T14:02:15.067Z,31.52
2019-03-24T14:04:41.711Z,32.14
2019-03-24T14:07:08.338Z,31.58
2019-03-24T14:10:31.555Z,31.28
2019-03-24T14:12:59.012Z,31.18
2019-03-24T14:15:25.562Z,31.97
2019-03-24T14:17:52.301Z,31.55
2019-03-24T14:20:18.917Z,32.46
2019-03-24T14:22:45.723Z,32.18
2019-03-24T14:25:12.648Z,32.54
2019-03-24T14:27:42.472Z,32.07
2019-03-24T14:30:11.365Z,33.22
2019-03-24T14:32:38.025Z,33.40
2019-03-24T14:35:06.168Z,32.38
2019-03-24T14:37:34.499Z,31.23
2019-03-24T14:40:03.939Z,31.27
2019-03-24T14:42:31.710Z,31.65
2019-03-24T14:44:58.443Z,33.25
2019-03-24T14:47:25.282Z,34.26
2019-03-24T14:49:51.846Z,35.15
2019-03-24T14:52:18.482Z,34.26
2019-03-24T14:54:45.420Z,33.67
2019-03-24T14:57:12.217Z,34.29
2019-03-24T14:59:39.254Z,36.18
2019-03-24T15:02:06.340Z,35.60
2019-03-24T15:04:33.062Z,36.27
2019-03-24T15:07:00.221Z,35.62
2019-03-24T15:09:30.071Z,36.23
2019-03-24T15:11:57.204Z,35.80
2019-03-24T15:14:23.887Z,35.18
2019-03-24T15:16:50.526Z,35.11
2019-03-24T15:19:17.097Z,35.07
2019-03-24T15:21:43.829Z,35.29
2019-03-24T15:24:10.850Z,35.44
2019-03-24T15:26:39.502Z,35.51
2019-03-24T15:29:06.397Z,35.03
2019-03-24T15:31:32.997Z,35.08
2019-03-24T15:33:59.676Z,34.72
2019-03-24T15:36:26.417Z,34.34
2019-03-24T15:38:53.110Z,34.13
2019-03-24T15:41:19.788Z,34.26
2019-03-24T15:43:47.692Z,34.19
2019-03-24T15:46:14.389Z,34.22
2019-03-24T15:48:41.065Z,34.78
2019-03-24T15:51:16.411Z,35.23
2019-03-24T15:53:36.274Z,35.71
2019-03-24T15:56:03.288Z,35.48
2019-03-24T15:58:30.013Z,35.83
2019-03-24T16:00:56.722Z,35.68
2019-03-24T16:03:23.328Z,36.06
2019-03-24T16:05:49.992Z,36.44
2019-03-24T16:08:16.682Z,36.82
2019-03-24T16:10:43.553Z,37.21
2019-03-24T16:13:10.374Z,37.33
2019-03-24T16:15:37.085Z,38.11
2019-03-24T16:18:04.021Z,38.37
2019-03-24T16:20:30.863Z,37.51
2019-03-24T16:22:57.581Z,37.49
2019-03-24T16:25:24.221Z,37.60
2019-03-24T16:28:47.347Z,39.32
2019-03-24T16:31:14.711Z,38.25
2019-03-24T16:33:41.449Z,38.23
2019-03-24T16:36:08.034Z,39.44
2019-03-24T16:38:34.626Z,39.29
2019-03-24T16:41:04.359Z,40.11
2019-03-24T16:43:31.402Z,40.90
2019-03-24T16:45:59.203Z,41.10
2019-03-24T16:48:36.197Z,41.10
2019-03-24T16:50:54.620Z,41.79
2019-03-24T16:53:21.195Z,41.62
2019-03-24T16:55:47.767Z,42.15
2019-03-24T16:59:13.895Z,41.65
2019-03-24T17:01:40.496Z,41.24
2019-03-24T17:04:07.108Z,43.10
2019-03-24T17:06:33.878Z,42.34
2019-03-24T17:09:00.576Z,41.66
2019-03-24T17:11:27.295Z,41.65
2019-03-24T17:13:53.951Z,41.77
2019-03-24T17:16:20.755Z,43.00
2019-03-24T17:18:47.442Z,43.33
2019-03-24T17:21:14.209Z,44.21
2019-03-24T17:23:40.786Z,44.24
2019-03-24T17:26:07.472Z,44.44
2019-03-24T17:28:34.117Z,44.16
2019-03-24T17:31:00.880Z,43.96
2019-03-24T17:33:27.575Z,44.12
2019-03-24T17:35:55.442Z,44.28
2019-03-24T17:38:23.272Z,45.09
2019-03-24T17:40:49.986Z,46.04
2019-03-24T17:43:16.834Z,46.89
2019-03-24T17:45:43.583Z,46.19
2019-03-24T17:48:10.273Z,46.43
2019-03-24T17:50:36.952Z,47.39
2019-03-24T17:53:03.812Z,47.36
2019-03-24T17:55:31.163Z,48.15
2019-03-24T17:58:54.356Z,49.27
2019-03-24T18:01:21.209Z,49.37
2019-03-24T18:03:48.040Z,49.16
2019-03-24T18:06:14.766Z,48.79
2019-03-24T18:08:41.440Z,48.80
2019-03-24T18:11:08.162Z,49.08
2019-03-24T18:13:34.886Z,49.35
2019-03-24T18:16:02.972Z,49.44
2019-03-24T18:19:26.036Z,48.70
2019-03-24T18:21:52.674Z,49.00
2019-03-24T18:24:20.634Z,50.98
2019-03-24T18:26:47.240Z,51.73
2019-03-24T18:29:13.889Z,52.02
2019-03-24T18:31:40.485Z,51.36
2019-03-24T18:34:07.170Z,50.33
2019-03-24T18:36:33.773Z,50.13
2019-03-24T18:39:00.347Z,50.05
2019-03-24T18:41:28.534Z,51.08
2019-03-24T18:43:55.274Z,51.34
2019-03-24T18:46:22.668Z,51.15
2019-03-24T18:48:49.282Z,51.02
2019-03-24T18:51:16.080Z,50.73
2019-03-24T18:53:42.752Z,49.77
2019-03-24T18:56:09.643Z,50.77
2019-03-24T18:58:36.317Z,50.20
2019-03-24T19:01:03.031Z,48.93
2019-03-24T19:03:29.816Z,48.42
2019-03-24T19:05:56.450Z,48.16
2019-03-24T19:08:23.057Z,48.74
2019-03-24T19:10:50.353Z,49.24
2019-03-24T19:13:17.140Z,49.28
2019-03-24T19:15:43.935Z,49.49
2019-03-24T19:18:10.514Z,48.67
2019-03-24T19:20:37.259Z,49.34
2019-03-24T19:23:04.468Z,49.53
2019-03-24T19:25:31.188Z,50.49
2019-03-24T19:27:58.075Z,51.23
2019-03-24T19:30:30.387Z,51.76
2019-03-24T19:32:57.614Z,51.77
2019-03-24T19:35:24.739Z,51.07
2019-03-24T19:37:52.946Z,50.20
2019-03-24T19:40:25.276Z,49.94
2019-03-24T19:42:54.027Z,49.79
2019-03-24T19:45:21.304Z,50.01
2019-03-24T19:47:47.948Z,50.04
2019-03-24T19:50:14.760Z,50.06
2019-03-24T19:52:44.865Z,50.05
2019-03-24T19:55:10.523Z,50.10
2019-03-24T19:57:37.235Z,50.84
2019-03-24T20:00:06.409Z,52.49
2019-03-24T20:02:33.874Z,53.45
2019-03-24T20:05:20.663Z,52.88
2019-03-24T20:07:48.424Z,52.79
2019-03-24T20:10:15.395Z,52.23
2019-03-24T20:12:41.983Z,52.91
2019-03-24T20:15:10.379Z,53.01
2019-03-24T20:17:38.137Z,53.13
2019-03-24T20:20:05.419Z,53.52
2019-03-24T20:22:32.666Z,53.47
2019-03-24T20:24:59.327Z,53.66
2019-03-24T20:27:26.342Z,52.97
2019-03-24T20:29:53.209Z,52.70
2019-03-24T20:32:20.218Z,52.11
2019-03-24T20:34:47.232Z,52.39
2019-03-24T20:37:14.073Z,51.99
2019-03-24T20:39:40.984Z,51.82
2019-03-24T20:42:07.785Z,52.11
2019-03-24T20:44:34.595Z,52.55
2019-03-24T20:47:05.601Z,51.83
2019-03-24T20:49:32.239Z,52.16
2019-03-24T20:51:58.901Z,53.89
2019-03-24T20:54:25.513Z,54.99
2019-03-24T20:56:54.251Z,54.58
2019-03-24T20:59:22.729Z,54.69
2019-03-24T21:01:49.390Z,55.03
2019-03-24T21:04:16.173Z,55.76
2019-03-24T21:06:42.741Z,55.81
2019-03-24T21:09:09.422Z,56.46
2019-03-24T21:11:36.441Z,56.69
2019-03-24T21:14:04.056Z,56.22
2019-03-24T21:16:30.795Z,56.38
2019-03-24T21:18:57.396Z,56.11
2019-03-24T21:21:24.216Z,56.56
2019-03-24T21:23:51.016Z,57.00
2019-03-24T21:26:17.729Z,56.94
2019-03-24T21:28:44.280Z,57.25
2019-03-24T21:31:11.088Z,57.06
2019-03-24T21:33:37.953Z,57.18
2019-03-24T21:36:04.978Z,57.68
2019-03-24T21:38:32.078Z,57.93
2019-03-24T21:40:59.016Z,58.12
2019-03-24T21:43:25.577Z,58.29
2019-03-24T21:45:52.368Z,58.45
2019-03-24T21:48:19.101Z,58.70
2019-03-24T21:50:45.688Z,58.47
2019-03-24T21:53:12.461Z,58.37
2019-03-24T21:55:39.191Z,58.92
2019-03-24T21:58:05.783Z,59.27
2019-03-24T22:00:35.002Z,58.94
2019-03-24T22:03:02.615Z,58.67
2019-03-24T22:05:29.498Z,59.16
2019-03-24T22:07:56.399Z,58.20
2019-03-24T22:10:23.174Z,57.48
2019-03-24T22:12:50.403Z,57.72
2019-03-24T22:15:17.000Z,58.53
2019-03-24T22:17:43.567Z,58.90
2019-03-24T22:20:10.824Z,59.50
2019-03-24T22:22:37.406Z,59.51
2019-03-24T22:26:00.646Z,59.80
2019-03-24T22:28:27.245Z,59.51
2019-03-24T22:30:54.001Z,58.29
2019-03-24T22:33:20.702Z,60.10
2019-03-24T22:35:47.563Z,60.66
2019-03-24T22:38:14.232Z,60.81
2019-03-24T22:40:40.822Z,60.71
2019-03-24T22:43:07.715Z,60.91
2019-03-24T22:45:34.423Z,60.82
2019-03-24T22:48:01.172Z,60.33
2019-03-24T22:50:27.891Z,60.92
2019-03-24T22:52:54.580Z,61.03
2019-03-24T22:55:21.398Z,61.07
2019-03-24T22:57:49.196Z,61.35
2019-03-24T23:00:18.978Z,61.89
2019-03-24T23:02:46.667Z,61.86
2019-03-24T23:05:13.354Z,61.99
2019-03-24T23:07:40.176Z,62.31
2019-03-24T23:10:07.263Z,61.95
2019-03-24T23:12:34.082Z,61.86
2019-03-24T23:15:00.671Z,62.03
2019-03-24T23:17:27.444Z,62.19
2019-03-24T23:19:54.027Z,62.20
2019-03-24T23:22:20.906Z,62.45
2019-03-24T23:24:47.901Z,62.35
2019-03-24T23:27:16.528Z,61.61
2019-03-24T23:29:43.147Z,62.04
2019-03-24T23:32:09.842Z,62.29
2019-03-24T23:34:36.755Z,62.13
2019-03-24T23:37:59.850Z,61.90
2019-03-24T23:40:26.507Z,62.16
2019-03-24T23:42:53.386Z,63.04
2019-03-24T23:45:20.218Z,62.76
2019-03-24T23:48:43.216Z,62.45
2019-03-24T23:51:09.783Z,62.65
2019-03-24T23:53:36.396Z,62.48
2019-03-24T23:56:03.201Z,62.43
2019-03-24T23:58:40.328Z,62.30
